Time;durP1;ratioP1;P1;durP2;ratioP2;P2;SDS_P1;SDS_P2;PMS_P1;PMS_P2;Temp;Humidity;BMP_temperature;BMP_pressure;BME280_temperature;BME280_humidity;BME280_pressure;Samples;Min_cycle;Max_cycle;Signal;HPM_P1;HPM_P2
2023/09/27 00:00:23;;;;;;;7.07;6.17;;;16.80;99.90;;;;;;4982132;28;20335;-73
2023/09/27 00:02:49;;;;;;;9.70;7.30;;;16.70;99.90;;;;;;4997950;28;20482;-74
2023/09/27 00:05:16;;;;;;;9.60;7.20;;;16.70;99.90;;;;;;5004508;28;20248;-74
2023/09/27 00:07:42;;;;;;;8.30;7.40;;;16.70;99.90;;;;;;5012542;28;20475;-73
2023/09/27 00:10:09;;;;;;;11.57;7.13;;;16.60;99.90;;;;;;4994689;28;20506;-73
2023/09/27 00:12:36;;;;;;;9.00;7.00;;;16.60;99.90;;;;;;5010300;28;20231;-74
2023/09/27 00:15:02;;;;;;;11.60;8.80;;;16.60;99.90;;;;;;5003951;28;20656;-73
2023/09/27 00:17:29;;;;;;;12.53;7.50;;;16.60;99.90;;;;;;4984314;28;20472;-73
2023/09/27 00:19:55;;;;;;;8.80;7.07;;;16.60;99.90;;;;;;5016554;28;20568;-73
2023/09/27 00:22:21;;;;;;;11.07;7.03;;;16.60;99.90;;;;;;4993044;28;21004;-73
2023/09/27 00:24:47;;;;;;;8.30;7.17;;;16.60;99.90;;;;;;4991167;28;20221;-73
2023/09/27 00:27:13;;;;;;;6.77;6.07;;;16.60;99.90;;;;;;5007203;28;20479;-74
2023/09/27 00:29:39;;;;;;;7.83;7.03;;;16.50;99.90;;;;;;5004675;28;20549;-72
2023/09/27 00:32:05;;;;;;;9.93;8.20;;;16.40;99.90;;;;;;5005538;28;20232;-73
2023/09/27 00:34:31;;;;;;;8.33;7.30;;;16.40;99.90;;;;;;4988991;28;20217;-73
2023/09/27 00:36:56;;;;;;;14.47;8.10;;;16.40;99.90;;;;;;4980712;28;20229;-72
2023/09/27 00:39:22;;;;;;;9.77;8.10;;;16.40;99.90;;;;;;5007616;28;20467;-74
2023/09/27 00:41:48;;;;;;;7.67;6.87;;;16.40;99.90;;;;;;4998383;28;20217;-72
2023/09/27 00:44:14;;;;;;;9.70;7.30;;;16.40;99.90;;;;;;4982233;28;20237;-74
2023/09/27 00:46:40;;;;;;;8.60;7.60;;;16.40;99.90;;;;;;4995006;28;20342;-74
2023/09/27 00:49:06;;;;;;;9.13;6.80;;;16.40;99.90;;;;;;4987332;28;20289;-74
2023/09/27 00:51:32;;;;;;;8.40;7.00;;;16.40;99.90;;;;;;5007564;28;20546;-74
2023/09/27 00:53:58;;;;;;;8.07;6.87;;;16.40;99.90;;;;;;5002566;28;20459;-73
2023/09/27 00:56:25;;;;;;;7.03;6.43;;;16.40;99.90;;;;;;5006318;28;20506;-73
2023/09/27 00:58:52;;;;;;;7.93;6.33;;;16.40;99.90;;;;;;5023770;28;20801;-73
2023/09/27 01:01:18;;;;;;;8.50;6.40;;;16.40;99.90;;;;;;4997342;28;20463;-73
2023/09/27 01:03:44;;;;;;;8.10;7.00;;;16.40;99.90;;;;;;5006832;28;20472;-73
2023/09/27 01:06:13;;;;;;;8.93;8.00;;;16.30;99.90;;;;;;4984018;28;20586;-72
2023/09/27 01:08:39;;;;;;;9.83;8.27;;;16.30;99.90;;;;;;5022668;28;20467;-74
2023/09/27 01:11:05;;;;;;;9.30;7.83;;;16.30;99.90;;;;;;5001638;28;20611;-73
2023/09/27 01:13:31;;;;;;;9.80;8.50;;;16.20;99.90;;;;;;5002090;28;20848;-74
2023/09/27 01:15:58;;;;;;;9.37;7.97;;;16.10;99.90;;;;;;5004201;28;20568;-73
2023/09/27 01:18:25;;;;;;;14.50;7.90;;;16.10;99.90;;;;;;5008544;28;21118;-73
2023/09/27 01:20:51;;;;;;;8.53;6.83;;;16.10;99.90;;;;;;5000749;28;20232;-74
2023/09/27 01:23:16;;;;;;;9.80;7.70;;;16.10;99.90;;;;;;4999551;28;20573;-74
2023/09/27 01:25:42;;;;;;;8.40;7.17;;;16.10;99.90;;;;;;5004827;28;20228;-75
2023/09/27 01:28:10;;;;;;;9.90;7.47;;;16.10;99.90;;;;;;4998453;28;20220;-73
2023/09/27 01:30:36;;;;;;;8.53;7.67;;;16.10;99.90;;;;;;5005710;28;20357;-74
2023/09/27 01:33:07;;;;;;;10.07;8.03;;;16.00;99.90;;;;;;5004085;28;20467;-72
2023/09/27 01:35:44;;;;;;;9.03;6.83;;;16.00;99.90;;;;;;5006677;28;20459;-74
2023/09/27 01:38:11;;;;;;;9.47;7.30;;;16.00;99.90;;;;;;5017822;28;20467;-73
2023/09/27 01:40:45;;;;;;;11.40;7.87;;;15.90;99.90;;;;;;5005320;28;21271;-73
2023/09/27 01:43:11;;;;;;;12.40;8.07;;;15.90;99.90;;;;;;5002151;28;20510;-74
2023/09/27 01:45:38;;;;;;;9.37;8.40;;;16.00;99.90;;;;;;5004284;28;20851;-73
2023/09/27 01:48:04;;;;;;;13.37;8.30;;;16.00;99.90;;;;;;4999903;28;21217;-73
2023/09/27 01:50:33;;;;;;;10.27;7.50;;;16.00;99.90;;;;;;4990052;28;21090;-73
2023/09/27 01:52:59;;;;;;;9.10;7.77;;;15.90;99.90;;;;;;5003812;28;20475;-73
2023/09/27 01:55:25;;;;;;;10.10;8.00;;;15.90;99.90;;;;;;5020874;28;20498;-74
2023/09/27 01:57:51;;;;;;;9.27;7.27;;;15.80;99.90;;;;;;5003221;28;20216;-74
2023/09/27 02:00:19;;;;;;;9.33;8.07;;;15.80;99.90;;;;;;5000946;28;20601;-73
2023/09/27 02:02:48;;;;;;;11.47;10.20;;;15.70;99.90;;;;;;5004515;28;20497;-73
2023/09/27 02:05:14;;;;;;;9.27;7.40;;;15.70;99.90;;;;;;5002046;28;20558;-72
2023/09/27 02:07:40;;;;;;;7.67;6.97;;;15.70;99.90;;;;;;5022269;28;21089;-74
2023/09/27 02:10:07;;;;;;;7.63;6.20;;;15.70;99.90;;;;;;5001350;28;20230;-73
2023/09/27 02:12:33;;;;;;;11.50;7.17;;;15.70;99.90;;;;;;5022055;28;20228;-73
2023/09/27 02:14:59;;;;;;;10.00;7.53;;;15.60;99.90;;;;;;5002821;28;20580;-72
2023/09/27 02:17:25;;;;;;;8.50;7.40;;;15.60;99.90;;;;;;5003152;28;20248;-74
2023/09/27 02:19:51;;;;;;;10.13;7.30;;;15.50;99.90;;;;;;5006711;28;20514;-74
2023/09/27 02:22:18;;;;;;;8.43;7.40;;;15.50;99.90;;;;;;5016364;28;20462;-74
2023/09/27 02:24:45;;;;;;;8.23;6.73;;;15.40;99.90;;;;;;5004679;28;20479;-73
2023/09/27 02:27:10;;;;;;;9.30;7.50;;;15.30;99.90;;;;;;5000456;28;20467;-72
2023/09/27 02:29:37;;;;;;;7.80;7.00;;;15.30;99.90;;;;;;5018693;28;20299;-73
2023/09/27 02:32:05;;;;;;;8.27;7.10;;;15.40;99.90;;;;;;5003667;28;20227;-74
2023/09/27 02:34:30;;;;;;;8.37;7.10;;;15.40;99.90;;;;;;5002107;28;20463;-73
2023/09/27 02:36:56;;;;;;;9.47;7.60;;;15.40;99.90;;;;;;5019936;28;20619;-73
2023/09/27 02:39:22;;;;;;;9.07;7.13;;;15.40;99.90;;;;;;5000921;28;20256;-74
2023/09/27 02:41:48;;;;;;;8.10;6.50;;;15.40;99.90;;;;;;5006303;28;20220;-72
2023/09/27 02:44:13;;;;;;;9.23;7.40;;;15.40;99.90;;;;;;5001376;28;20369;-73
2023/09/27 02:46:44;;;;;;;9.10;7.57;;;15.40;99.90;;;;;;5005300;28;20990;-72
2023/09/27 02:49:10;;;;;;;9.20;7.60;;;15.30;99.90;;;;;;5002630;28;20231;-73
2023/09/27 02:51:37;;;;;;;9.63;6.87;;;15.10;99.90;;;;;;5003427;28;20463;-72
2023/09/27 02:54:04;;;;;;;7.27;6.50;;;15.10;99.90;;;;;;4998096;28;20544;-73
2023/09/27 02:56:30;;;;;;;9.17;7.13;;;15.20;99.90;;;;;;5004309;28;20982;-73
2023/09/27 02:58:56;;;;;;;8.77;6.80;;;14.80;99.90;;;;;;5020723;28;20534;-72
2023/09/27 03:01:22;;;;;;;9.47;7.00;;;14.90;99.90;;;;;;5001062;28;20467;-73
2023/09/27 03:03:48;;;;;;;8.17;6.80;;;15.00;99.90;;;;;;5003143;28;20487;-73
2023/09/27 03:06:14;;;;;;;7.63;6.17;;;15.10;99.90;;;;;;5016528;28;20256;-73
2023/09/27 03:08:43;;;;;;;7.07;6.10;;;15.00;99.90;;;;;;5016738;28;20602;-73
2023/09/27 03:11:09;;;;;;;6.67;5.97;;;14.90;99.90;;;;;;4999414;28;20471;-73
2023/09/27 03:13:36;;;;;;;7.13;6.00;;;14.80;99.90;;;;;;5004112;28;20586;-73
2023/09/27 03:16:04;;;;;;;6.10;5.50;;;14.70;99.90;;;;;;5000084;28;20471;-73
2023/09/27 03:18:32;;;;;;;5.70;5.20;;;14.60;99.90;;;;;;5001229;28;20467;-73
2023/09/27 03:20:59;;;;;;;6.50;5.90;;;14.30;99.90;;;;;;4999971;28;20483;-73
2023/09/27 03:23:28;;;;;;;6.53;5.80;;;14.20;99.90;;;;;;5003819;28;20552;-73
2023/09/27 03:25:56;;;;;;;6.47;5.60;;;14.50;99.90;;;;;;5003367;28;20479;-73
2023/09/27 03:28:22;;;;;;;6.20;5.60;;;14.70;99.90;;;;;;4998218;28;20461;-73
2023/09/27 03:30:48;;;;;;;7.80;6.63;;;14.80;99.90;;;;;;4996566;28;20464;-71
2023/09/27 03:33:14;;;;;;;6.90;6.20;;;14.90;99.90;;;;;;4987955;28;20473;-73
2023/09/27 03:35:41;;;;;;;12.40;7.70;;;14.90;99.90;;;;;;4986371;28;20458;-73
2023/09/27 03:38:07;;;;;;;11.50;7.53;;;14.90;99.90;;;;;;4991101;28;20686;-71
2023/09/27 03:40:32;;;;;;;10.70;8.20;;;14.90;99.90;;;;;;4989185;28;21092;-73
2023/09/27 03:42:59;;;;;;;11.03;7.83;;;14.90;99.90;;;;;;4991338;28;20480;-73
2023/09/27 03:45:27;;;;;;;9.77;7.53;;;14.80;99.90;;;;;;4983217;28;20536;-73
2023/09/27 03:47:53;;;;;;;10.20;7.90;;;14.80;99.90;;;;;;4984021;28;20468;-72
2023/09/27 03:50:20;;;;;;;9.40;7.47;;;14.80;99.90;;;;;;4983437;28;20525;-73
2023/09/27 03:52:46;;;;;;;10.10;7.90;;;14.70;99.90;;;;;;5003421;28;20589;-72
2023/09/27 03:55:12;;;;;;;10.13;8.50;;;14.70;99.90;;;;;;5015218;28;20271;-73
2023/09/27 03:57:40;;;;;;;9.40;7.70;;;14.80;99.90;;;;;;4999239;28;20680;-72
2023/09/27 04:00:07;;;;;;;8.60;7.10;;;14.80;99.90;;;;;;4998145;28;20479;-73
2023/09/27 04:02:38;;;;;;;10.70;7.00;;;14.80;99.90;;;;;;5002412;28;20553;-73
2023/09/27 04:05:05;;;;;;;8.10;7.30;;;14.80;99.90;;;;;;4998483;28;20455;-74
2023/09/27 04:07:30;;;;;;;7.60;6.27;;;14.60;99.90;;;;;;5003914;28;20478;-74
2023/09/27 04:09:57;;;;;;;7.37;6.67;;;14.50;99.90;;;;;;5002150;28;20983;-73
2023/09/27 04:12:22;;;;;;;6.97;5.83;;;14.50;99.90;;;;;;5001873;28;20533;-72
2023/09/27 04:14:48;;;;;;;6.67;5.97;;;14.50;99.90;;;;;;5020155;28;20247;-72
2023/09/27 04:17:14;;;;;;;4.97;4.53;;;14.50;99.90;;;;;;4997513;28;20322;-73
2023/09/27 04:19:40;;;;;;;8.57;5.93;;;14.60;99.90;;;;;;5004047;28;20227;-73
2023/09/27 04:22:05;;;;;;;5.60;5.10;;;14.60;99.90;;;;;;5000174;28;20549;-73
2023/09/27 04:24:31;;;;;;;7.53;6.40;;;14.50;99.90;;;;;;5018679;28;20359;-73
2023/09/27 04:26:58;;;;;;;7.80;6.70;;;14.50;99.90;;;;;;4999209;28;20789;-73
2023/09/27 04:29:24;;;;;;;8.37;6.17;;;14.50;99.90;;;;;;5002916;28;20221;-73
2023/09/27 04:31:50;;;;;;;8.50;6.40;;;14.50;99.90;;;;;;5002901;28;21198;-72
2023/09/27 04:34:17;;;;;;;10.80;6.57;;;14.40;99.90;;;;;;4999411;28;20318;-73
2023/09/27 04:36:42;;;;;;;11.70;7.73;;;14.40;99.90;;;;;;5004548;28;20765;-72
2023/09/27 04:39:12;;;;;;;7.30;6.40;;;14.40;99.90;;;;;;5002502;28;20546;-73
2023/09/27 04:41:39;;;;;;;9.27;6.50;;;14.50;99.90;;;;;;5001298;28;20286;-73
2023/09/27 04:44:05;;;;;;;10.13;6.90;;;14.50;99.90;;;;;;5004858;28;20479;-73
2023/09/27 04:46:32;;;;;;;13.07;6.70;;;14.60;99.90;;;;;;5003732;28;20558;-72
2023/09/27 04:48:58;;;;;;;8.97;7.30;;;14.50;99.90;;;;;;5003822;28;21097;-74
2023/09/27 04:51:24;;;;;;;7.87;6.50;;;14.50;99.90;;;;;;5007823;28;20512;-72
2023/09/27 04:53:50;;;;;;;8.90;7.47;;;14.50;99.90;;;;;;4990764;28;20589;-72
2023/09/27 04:56:15;;;;;;;8.33;7.20;;;14.50;99.90;;;;;;5020343;28;20248;-72
2023/09/27 04:58:41;;;;;;;9.43;8.30;;;14.40;99.90;;;;;;5007359;28;20220;-72
2023/09/27 05:01:07;;;;;;;8.23;6.80;;;14.40;99.90;;;;;;5003489;28;20438;-72
2023/09/27 05:03:33;;;;;;;8.43;7.53;;;14.40;99.90;;;;;;5022317;28;20829;-73
2023/09/27 05:05:58;;;;;;;10.60;8.07;;;14.40;99.90;;;;;;5000339;28;20302;-74
2023/09/27 05:08:26;;;;;;;11.90;8.70;;;14.40;99.90;;;;;;5006011;28;20220;-74
2023/09/27 05:10:52;;;;;;;9.40;7.07;;;14.30;99.90;;;;;;5008981;28;20262;-73
2023/09/27 05:13:21;;;;;;;10.33;7.83;;;14.20;99.90;;;;;;5001176;28;20552;-74
2023/09/27 05:15:50;;;;;;;9.63;7.73;;;14.20;99.90;;;;;;5007706;28;20459;-72
2023/09/27 05:18:15;;;;;;;13.07;7.50;;;14.30;99.90;;;;;;5000905;28;20482;-72
2023/09/27 05:20:41;;;;;;;12.70;7.90;;;14.30;99.90;;;;;;5006407;28;21008;-73
2023/09/27 05:23:07;;;;;;;10.40;8.27;;;14.30;99.90;;;;;;5001503;28;20238;-73
2023/09/27 05:25:32;;;;;;;9.87;7.90;;;14.30;99.90;;;;;;5006894;28;20488;-73
2023/09/27 05:27:58;;;;;;;11.10;8.30;;;14.30;99.90;;;;;;5002311;28;20220;-73
2023/09/27 05:30:24;;;;;;;8.13;7.07;;;14.20;99.90;;;;;;5003765;28;20221;-73
2023/09/27 05:32:49;;;;;;;8.47;6.63;;;14.20;99.90;;;;;;5004909;28;20228;-74
2023/09/27 05:35:15;;;;;;;10.97;8.27;;;14.20;99.90;;;;;;5004592;28;20228;-73
2023/09/27 05:37:42;;;;;;;8.50;7.60;;;14.20;99.90;;;;;;5005651;28;20725;-73
2023/09/27 05:40:10;;;;;;;9.57;7.87;;;14.20;99.90;;;;;;5016714;28;20233;-73
2023/09/27 05:42:36;;;;;;;11.40;8.00;;;14.20;99.90;;;;;;5021342;28;20455;-73
2023/09/27 05:45:02;;;;;;;12.97;8.10;;;14.20;99.90;;;;;;5018835;28;20470;-73
2023/09/27 05:47:27;;;;;;;8.57;7.67;;;14.20;99.90;;;;;;5005009;28;20224;-74
2023/09/27 05:49:53;;;;;;;9.40;7.43;;;14.20;99.90;;;;;;5026995;28;20499;-74
2023/09/27 05:52:19;;;;;;;10.07;8.07;;;14.20;99.90;;;;;;5008578;28;20227;-73
2023/09/27 05:54:46;;;;;;;8.87;6.70;;;14.20;99.90;;;;;;5013191;28;20281;-73
2023/09/27 05:57:12;;;;;;;8.33;7.07;;;14.10;99.90;;;;;;4973837;28;20226;-72
2023/09/27 05:59:41;;;;;;;10.20;7.80;;;14.10;99.90;;;;;;5009805;28;20462;-72
2023/09/27 06:02:07;;;;;;;7.97;7.10;;;14.10;99.90;;;;;;5007581;28;20463;-73
2023/09/27 06:04:33;;;;;;;9.83;6.47;;;14.10;99.90;;;;;;5011060;28;20490;-72
2023/09/27 06:06:59;;;;;;;7.83;6.50;;;14.10;99.90;;;;;;5018466;28;20224;-73
2023/09/27 06:09:24;;;;;;;8.07;6.63;;;14.10;99.90;;;;;;4996585;28;20841;-73
2023/09/27 06:11:51;;;;;;;8.20;6.53;;;14.10;99.90;;;;;;4970865;28;20221;-73
2023/09/27 06:14:16;;;;;;;7.17;6.10;;;14.10;99.90;;;;;;4996812;28;20278;-75
2023/09/27 06:16:45;;;;;;;7.90;6.60;;;14.20;99.90;;;;;;4989805;28;20496;-73
2023/09/27 06:19:11;;;;;;;8.00;7.20;;;14.20;99.90;;;;;;5008426;28;20407;-73
2023/09/27 06:21:37;;;;;;;9.17;8.03;;;14.20;99.90;;;;;;5013222;28;20479;-73
2023/09/27 06:24:05;;;;;;;12.17;7.00;;;14.20;99.90;;;;;;5012982;28;20587;-73
2023/09/27 06:26:30;;;;;;;13.50;6.77;;;14.20;99.90;;;;;;5004883;28;20484;-74
2023/09/27 06:28:57;;;;;;;6.83;6.20;;;14.20;99.90;;;;;;4989784;28;20506;-73
2023/09/27 06:31:23;;;;;;;8.10;6.37;;;14.20;99.90;;;;;;5008699;28;20228;-73
2023/09/27 06:33:49;;;;;;;9.10;6.70;;;14.20;99.90;;;;;;5006116;28;20574;-72
2023/09/27 06:36:16;;;;;;;13.40;8.30;;;14.20;99.90;;;;;;5009306;28;20305;-72
2023/09/27 06:38:42;;;;;;;7.97;6.80;;;14.20;99.90;;;;;;5006421;28;20244;-72
2023/09/27 06:41:08;;;;;;;11.97;7.97;;;14.20;99.90;;;;;;5027513;28;20591;-72
2023/09/27 06:43:34;;;;;;;9.83;6.97;;;14.20;99.90;;;;;;5009187;28;20509;-70
2023/09/27 06:46:07;;;;;;;9.70;7.20;;;14.30;99.90;;;;;;5003623;28;20483;-72
2023/09/27 06:48:33;;;;;;;10.50;7.90;;;14.30;99.90;;;;;;4994115;28;20472;-73
2023/09/27 06:50:58;;;;;;;16.03;9.70;;;14.30;99.90;;;;;;4987227;28;21021;-71
2023/09/27 06:53:24;;;;;;;11.90;8.07;;;14.30;99.90;;;;;;5013853;28;20853;-72
2023/09/27 06:55:53;;;;;;;11.67;8.40;;;14.30;99.90;;;;;;5012110;28;20231;-73
2023/09/27 06:58:23;;;;;;;12.80;8.37;;;14.40;99.90;;;;;;5003011;28;20221;-72
2023/09/27 07:00:51;;;;;;;10.13;8.10;;;14.40;99.90;;;;;;4986052;28;20615;-72
2023/09/27 07:03:19;;;;;;;9.97;7.67;;;14.40;99.90;;;;;;4999823;28;20471;-71
2023/09/27 07:05:46;;;;;;;11.10;8.13;;;14.40;99.90;;;;;;4994843;28;20541;-72
2023/09/27 07:08:13;;;;;;;10.63;8.37;;;14.40;99.90;;;;;;5001341;28;20471;-72
2023/09/27 07:10:38;;;;;;;7.90;6.80;;;14.40;99.90;;;;;;5002307;28;21037;-73
2023/09/27 07:13:04;;;;;;;9.00;6.50;;;14.40;99.90;;;;;;5005189;28;20541;-74
2023/09/27 07:15:31;;;;;;;9.20;7.30;;;14.50;99.90;;;;;;5004519;28;20323;-73
2023/09/27 07:17:57;;;;;;;9.43;6.93;;;14.50;99.90;;;;;;5007579;28;20224;-74
2023/09/27 07:20:32;;;;;;;8.80;7.20;;;14.50;99.90;;;;;;5012618;28;20471;-73
2023/09/27 07:22:58;;;;;;;8.73;7.30;;;14.50;99.90;;;;;;5001752;28;20321;-73
2023/09/27 07:25:25;;;;;;;8.87;7.33;;;14.60;99.90;;;;;;5019908;28;20462;-72
2023/09/27 07:27:52;;;;;;;10.80;7.30;;;14.70;99.90;;;;;;5024258;28;20465;-73
2023/09/27 07:30:20;;;;;;;10.27;6.90;;;14.80;99.90;;;;;;5004326;28;21058;-73
2023/09/27 07:32:46;;;;;;;9.63;7.17;;;14.90;99.90;;;;;;5006166;28;20469;-72
2023/09/27 07:35:14;;;;;;;12.03;8.40;;;15.00;99.90;;;;;;5005377;28;20471;-73
2023/09/27 07:37:40;;;;;;;13.43;8.80;;;15.10;99.90;;;;;;5023195;28;20220;-72
2023/09/27 07:40:10;;;;;;;13.83;8.63;;;15.20;99.90;;;;;;5006817;28;20467;-73
2023/09/27 07:42:43;;;;;;;12.97;8.60;;;15.30;99.90;;;;;;5003346;28;20474;-73
2023/09/27 07:45:20;;;;;;;10.90;7.47;;;15.40;99.90;;;;;;5006757;28;20459;-73
2023/09/27 07:47:50;;;;;;;12.73;8.47;;;15.50;99.90;;;;;;5007018;28;20450;-71
2023/09/27 07:50:17;;;;;;;11.13;8.60;;;15.60;99.90;;;;;;4987450;28;20459;-73
2023/09/27 07:52:43;;;;;;;12.30;8.50;;;15.70;99.90;;;;;;5007596;28;20478;-73
2023/09/27 07:55:11;;;;;;;10.60;8.50;;;15.70;99.90;;;;;;5007705;28;20463;-73
2023/09/27 07:57:37;;;;;;;10.50;8.90;;;15.80;99.90;;;;;;5008082;28;21194;-73
2023/09/27 08:00:09;;;;;;;10.30;8.47;;;15.90;99.90;;;;;;5005524;28;20467;-73
2023/09/27 08:02:38;;;;;;;11.63;9.03;;;15.90;99.90;;;;;;5006281;28;20216;-73
2023/09/27 08:05:09;;;;;;;12.17;9.07;;;16.00;99.90;;;;;;5004667;28;20540;-73
2023/09/27 08:07:36;;;;;;;14.60;9.97;;;16.10;99.90;;;;;;5003977;28;20536;-72
2023/09/27 08:10:03;;;;;;;12.57;10.00;;;16.40;99.90;;;;;;5023094;28;21105;-72
2023/09/27 08:12:31;;;;;;;11.07;9.80;;;16.50;99.90;;;;;;5021920;28;20462;-74
2023/09/27 08:14:58;;;;;;;13.13;9.33;;;16.50;99.90;;;;;;5007638;28;20455;-73
2023/09/27 08:17:24;;;;;;;20.93;10.40;;;16.50;99.90;;;;;;5011610;28;20502;-73
2023/09/27 08:19:50;;;;;;;14.83;9.40;;;16.60;99.90;;;;;;5009581;28;20700;-73
2023/09/27 08:22:15;;;;;;;11.20;9.27;;;16.90;99.90;;;;;;5007947;28;21139;-73
2023/09/27 08:24:41;;;;;;;12.37;8.57;;;18.40;99.90;;;;;;5027360;28;20886;-73
2023/09/27 08:27:07;;;;;;;13.50;9.10;;;20.00;99.90;;;;;;5012603;28;20230;-71
2023/09/27 08:29:32;;;;;;;8.83;7.93;;;20.10;99.90;;;;;;5023481;28;20231;-74
2023/09/27 08:31:58;;;;;;;15.10;10.50;;;20.10;99.90;;;;;;5009478;28;20227;-73
2023/09/27 08:34:24;;;;;;;9.43;8.50;;;19.30;99.90;;;;;;5011241;28;20231;-72
2023/09/27 08:36:49;;;;;;;10.87;9.30;;;18.60;99.90;;;;;;5012721;28;20255;-72
2023/09/27 08:39:15;;;;;;;15.10;9.10;;;18.10;99.90;;;;;;5010661;28;20351;-74
2023/09/27 08:41:41;;;;;;;10.50;9.07;;;17.90;99.90;;;;;;5003593;28;20792;-73
2023/09/27 08:44:07;;;;;;;10.47;8.73;;;17.90;99.90;;;;;;5008944;28;20668;-73
2023/09/27 08:46:35;;;;;;;9.40;8.33;;;18.00;99.90;;;;;;5011198;28;20216;-74
2023/09/27 08:49:02;;;;;;;11.03;8.60;;;18.10;99.90;;;;;;5009562;28;20471;-73
2023/09/27 08:51:29;;;;;;;10.50;8.47;;;18.10;99.90;;;;;;5007844;28;20470;-73
2023/09/27 08:53:55;;;;;;;12.50;8.13;;;18.10;99.90;;;;;;5009366;28;20478;-74
2023/09/27 08:56:23;;;;;;;8.90;7.97;;;18.10;99.90;;;;;;5025553;28;20458;-73
2023/09/27 08:58:49;;;;;;;9.93;8.60;;;18.20;99.90;;;;;;5027322;28;20232;-73
2023/09/27 09:01:16;;;;;;;11.50;8.33;;;18.20;99.90;;;;;;5008446;28;20537;-72
2023/09/27 09:03:42;;;;;;;8.67;7.67;;;18.30;99.90;;;;;;5009345;28;20923;-74
2023/09/27 09:06:12;;;;;;;14.17;10.70;;;18.50;99.90;;;;;;5010101;28;20491;-72
2023/09/27 09:08:43;;;;;;;10.20;9.10;;;18.80;99.90;;;;;;5009553;28;20478;-73
2023/09/27 09:11:11;;;;;;;10.13;8.67;;;19.00;99.90;;;;;;5006253;28;20471;-73
2023/09/27 09:13:59;;;;;;;11.70;8.90;;;19.10;99.90;;;;;;5006357;28;21283;-74
2023/09/27 09:16:24;;;;;;;11.00;8.87;;;19.40;99.90;;;;;;5009102;28;20470;-73
2023/09/27 09:18:54;;;;;;;9.53;8.47;;;19.40;99.90;;;;;;5009584;28;20564;-73
2023/09/27 09:21:20;;;;;;;10.40;9.00;;;19.50;99.90;;;;;;5006578;28;20238;-74
2023/09/27 09:23:49;;;;;;;12.87;8.87;;;19.40;99.90;;;;;;5025330;28;20552;-74
2023/09/27 09:26:29;;;;;;;8.97;7.60;;;19.50;99.90;;;;;;5008580;28;21587;-73
2023/09/27 09:28:57;;;;;;;11.23;8.50;;;19.60;99.90;;;;;;5009108;28;20467;-73
2023/09/27 09:31:23;;;;;;;10.27;7.80;;;19.70;99.90;;;;;;5002870;28;20491;-73
2023/09/27 09:34:08;;;;;;;10.83;9.03;;;19.80;99.90;;;;;;5010236;28;20978;-74
2023/09/27 09:36:35;;;;;;;11.83;9.30;;;20.10;99.90;;;;;;5001819;28;21173;-74
2023/09/27 09:39:14;;;;;;;9.73;8.67;;;20.10;99.90;;;;;;4977438;28;21503;-74
2023/09/27 09:41:47;;;;;;;8.90;8.00;;;20.20;99.90;;;;;;4974150;28;20517;-73
2023/09/27 09:44:23;;;;;;;16.13;8.40;;;20.20;99.90;;;;;;4999515;28;20941;-73
2023/09/27 09:46:53;;;;;;;12.60;9.60;;;20.40;99.90;;;;;;5006280;28;20493;-73
2023/09/27 09:49:21;;;;;;;11.63;8.60;;;20.40;99.90;;;;;;5006776;28;20653;-74
2023/09/27 09:51:52;;;;;;;9.40;8.50;;;20.40;99.90;;;;;;5003999;28;20463;-74
2023/09/27 09:54:27;;;;;;;9.57;7.63;;;20.40;99.90;;;;;;5005482;28;21111;-73
2023/09/27 09:56:57;;;;;;;10.30;8.40;;;20.70;99.90;;;;;;5007489;28;20553;-74
2023/09/27 09:59:29;;;;;;;9.73;8.73;;;20.70;99.90;;;;;;5006966;28;20459;-74
2023/09/27 10:01:57;;;;;;;7.40;6.70;;;20.60;99.90;;;;;;5004862;28;20475;-73
2023/09/27 10:04:26;;;;;;;7.40;6.80;;;20.60;99.90;;;;;;5001477;28;20475;-73
2023/09/27 10:06:53;;;;;;;11.93;8.10;;;20.80;99.90;;;;;;5022398;28;21089;-74
2023/09/27 10:09:20;;;;;;;10.63;8.17;;;21.10;99.90;;;;;;5018485;28;20463;-75
2023/09/27 10:11:46;;;;;;;11.73;9.00;;;21.00;99.90;;;;;;5002970;28;20510;-74
2023/09/27 10:14:12;;;;;;;9.03;8.10;;;20.80;99.90;;;;;;5004376;28;21237;-75
2023/09/27 10:16:38;;;;;;;9.10;8.20;;;20.80;99.90;;;;;;5007456;28;20525;-75
2023/09/27 10:19:05;;;;;;;8.13;7.30;;;21.00;99.90;;;;;;4996335;28;20455;-75
2023/09/27 10:21:31;;;;;;;9.23;8.03;;;21.30;99.90;;;;;;5005208;28;20447;-74
2023/09/27 10:23:58;;;;;;;7.67;6.30;;;21.50;99.90;;;;;;5022481;28;20482;-76
2023/09/27 10:26:27;;;;;;;7.37;6.67;;;21.80;99.90;;;;;;5006421;28;20495;-74
2023/09/27 10:29:10;;;;;;;7.23;6.53;;;22.00;99.90;;;;;;5022249;28;20475;-74
2023/09/27 10:31:56;;;;;;;6.93;6.33;;;22.20;99.90;;;;;;4999905;28;20466;-75
2023/09/27 10:34:42;;;;;;;6.77;6.17;;;22.30;99.90;;;;;;5005826;28;20473;-74
2023/09/27 10:37:08;;;;;;;7.30;6.60;;;22.30;99.90;;;;;;5004037;28;20589;-75
2023/09/27 10:39:37;;;;;;;7.10;6.40;;;22.30;99.90;;;;;;4988415;28;21562;-74
2023/09/27 10:42:04;;;;;;;7.53;6.80;;;22.30;99.90;;;;;;5000983;28;20228;-75
2023/09/27 10:44:30;;;;;;;6.93;6.33;;;22.20;99.90;;;;;;5005351;28;21116;-74
2023/09/27 10:47:01;;;;;;;8.80;7.97;;;22.10;99.90;;;;;;5005310;28;20224;-74
2023/09/27 10:49:33;;;;;;;9.73;7.30;;;21.90;99.90;;;;;;5005840;28;20504;-75
2023/09/27 10:51:59;;;;;;;9.40;6.83;;;22.00;99.90;;;;;;5006187;28;20476;-74
2023/09/27 10:54:26;;;;;;;9.07;7.10;;;22.40;99.90;;;;;;5006062;28;20813;-74
2023/09/27 10:56:53;;;;;;;9.17;7.37;;;22.40;99.90;;;;;;5005376;28;20230;-74
2023/09/27 10:59:28;;;;;;;7.57;6.87;;;22.40;99.90;;;;;;5005080;28;20478;-75
2023/09/27 11:01:55;;;;;;;8.10;7.40;;;22.30;99.90;;;;;;5016259;28;20477;-74
2023/09/27 11:04:25;;;;;;;7.77;6.57;;;22.50;99.90;;;;;;5003961;28;20883;-74
2023/09/27 11:06:51;;;;;;;6.50;5.90;;;22.60;99.90;;;;;;4989175;28;20483;-75
2023/09/27 11:09:19;;;;;;;7.47;6.80;;;22.80;99.90;;;;;;5004675;28;22002;-74
2023/09/27 11:11:54;;;;;;;7.83;7.13;;;22.80;99.90;;;;;;5004259;28;20585;-74
2023/09/27 11:14:31;;;;;;;10.10;7.50;;;22.60;99.90;;;;;;5006134;28;20472;-75
2023/09/27 11:17:22;;;;;;;7.07;6.37;;;22.60;99.90;;;;;;5003106;28;20471;-74
2023/09/27 11:19:48;;;;;;;9.27;7.20;;;22.90;99.90;;;;;;5002811;28;21133;-75
2023/09/27 11:22:27;;;;;;;7.90;7.20;;;22.90;99.90;;;;;;5002279;28;20474;-74
2023/09/27 11:24:52;;;;;;;6.73;5.90;;;22.80;99.90;;;;;;4980072;28;20482;-75
2023/09/27 11:27:21;;;;;;;9.40;7.60;;;23.20;99.90;;;;;;4983195;28;20503;-75
2023/09/27 11:29:52;;;;;;;9.80;7.80;;;23.20;99.90;;;;;;5000835;28;20232;-75
2023/09/27 11:32:18;;;;;;;7.37;6.70;;;23.20;99.90;;;;;;4978330;28;20475;-74
2023/09/27 11:34:54;;;;;;;6.90;6.20;;;23.30;99.90;;;;;;5020886;28;20463;-74
2023/09/27 11:37:19;;;;;;;8.30;6.40;;;23.50;99.90;;;;;;5010009;28;21044;-76
2023/09/27 11:39:50;;;;;;;6.50;5.90;;;23.60;99.90;;;;;;5006975;28;20563;-74
2023/09/27 11:42:23;;;;;;;9.77;6.97;;;24.00;99.90;;;;;;5001003;28;20232;-73
2023/09/27 11:45:05;;;;;;;7.87;6.53;;;24.30;99.90;;;;;;5008672;28;20608;-75
2023/09/27 11:47:51;;;;;;;7.60;6.77;;;24.50;99.90;;;;;;4998969;28;20458;-74
2023/09/27 11:50:18;;;;;;;10.13;7.10;;;24.50;99.90;;;;;;5001534;28;20552;-75
2023/09/27 11:52:46;;;;;;;7.30;6.70;;;24.80;99.90;;;;;;5013279;28;20481;-75
2023/09/27 11:55:13;;;;;;;7.87;7.20;;;24.60;99.90;;;;;;4996347;28;20466;-74
2023/09/27 11:57:40;;;;;;;7.37;6.67;;;24.40;99.90;;;;;;4983819;28;20467;-75
2023/09/27 12:00:08;;;;;;;7.33;6.73;;;24.40;99.90;;;;;;5006015;28;21335;-75
2023/09/27 12:02:35;;;;;;;6.27;5.77;;;24.40;99.90;;;;;;5007526;28;20573;-75
2023/09/27 12:05:01;;;;;;;7.67;6.20;;;24.40;99.90;;;;;;5011421;28;20470;-75
2023/09/27 12:07:27;;;;;;;7.07;6.30;;;24.60;99.90;;;;;;5009745;28;22035;-75
2023/09/27 12:09:54;;;;;;;6.67;5.40;;;24.80;99.90;;;;;;5006814;28;20474;-75
2023/09/27 12:12:20;;;;;;;5.57;5.17;;;24.80;99.90;;;;;;5000420;28;20228;-75
2023/09/27 12:14:45;;;;;;;6.90;6.30;;;25.10;99.90;;;;;;4983612;28;20477;-74
2023/09/27 12:17:12;;;;;;;5.20;4.80;;;25.20;99.90;;;;;;5006103;28;20227;-75
2023/09/27 12:19:38;;;;;;;5.20;4.70;;;25.20;99.90;;;;;;4989703;28;20224;-75
2023/09/27 12:22:04;;;;;;;5.67;4.83;;;25.30;99.90;;;;;;5020472;28;20517;-75
2023/09/27 12:24:30;;;;;;;7.60;5.23;;;25.60;99.90;;;;;;5007882;28;20350;-75
2023/09/27 12:26:56;;;;;;;5.67;5.00;;;25.40;99.90;;;;;;5005981;28;20228;-76
2023/09/27 12:29:22;;;;;;;6.17;5.60;;;25.10;99.90;;;;;;5003919;28;20459;-75
2023/09/27 12:31:48;;;;;;;6.80;5.97;;;24.90;99.90;;;;;;5002642;28;21640;-75
2023/09/27 12:34:14;;;;;;;5.97;5.40;;;25.00;99.90;;;;;;5007550;28;20282;-75
2023/09/27 12:36:39;;;;;;;5.50;4.37;;;25.20;99.90;;;;;;5008999;28;20243;-75
2023/09/27 12:39:05;;;;;;;6.97;5.70;;;25.60;99.90;;;;;;5007579;28;20618;-75
2023/09/27 12:41:31;;;;;;;6.13;5.63;;;25.60;99.90;;;;;;5008011;28;20215;-75
2023/09/27 12:43:56;;;;;;;5.60;5.10;;;25.50;99.90;;;;;;5010401;28;21259;-75